createdAt,value
2022-08-29T00:01:11.261Z,101872.69
2022-08-29T00:03:38.837Z,101869.16
2022-08-29T00:06:08.203Z,101858.75
2022-08-29T00:08:35.405Z,101861.22
2022-08-29T00:11:03.044Z,101861.22
2022-08-29T00:13:30.434Z,101852.56
2022-08-29T00:15:57.535Z,101854.31
2022-08-29T00:18:24.814Z,101855.22
2022-08-29T00:20:52.529Z,101854.22
2022-08-29T00:23:19.776Z,101857.75
2022-08-29T00:25:47.080Z,101860.31
2022-08-29T00:28:14.424Z,101857.66
2022-08-29T00:30:42.440Z,101855.09
2022-08-29T00:33:09.895Z,101851.66
2022-08-29T00:35:41.197Z,101853.22
2022-08-29T00:38:12.174Z,101857.59
2022-08-29T00:40:51.642Z,101861.13
2022-08-29T00:43:25.344Z,101853.09
2022-08-29T00:46:10.830Z,101850.41
2022-08-29T00:48:41.076Z,101861.03
2022-08-29T00:51:16.749Z,101852.13
2022-08-29T00:53:52.755Z,101854.78
2022-08-29T00:56:21.234Z,101856.59
2022-08-29T00:58:55.558Z,101852.97
2022-08-29T01:01:23.290Z,101848.53
2022-08-29T01:03:52.399Z,101841.38
2022-08-29T01:06:21.664Z,101845.19
2022-08-29T01:08:49.057Z,101844.84
2022-08-29T01:11:46.553Z,101845.81
2022-08-29T01:14:15.719Z,101839.63
2022-08-29T01:16:44.172Z,101855.31
2022-08-29T01:19:46.399Z,101843.84
2022-08-29T01:22:39.309Z,101839.47
2022-08-29T01:25:13.453Z,101799.44
2022-08-29T01:27:47.750Z,101831.50
2022-08-29T01:30:15.445Z,101822.91
2022-08-29T01:32:43.265Z,101826.50
2022-08-29T01:35:10.912Z,101832.50
2022-08-29T01:37:41.838Z,101832.53
2022-08-29T01:40:11.557Z,101836.19
2022-08-29T01:42:39.450Z,101830.88
2022-08-29T01:45:09.880Z,101825.78
2022-08-29T01:47:38.947Z,101829.34
2022-08-29T01:50:16.255Z,101840.78
2022-08-29T01:52:43.654Z,101836.41
2022-08-29T01:55:11.531Z,101846.16
2022-08-29T01:57:39.928Z,101846.16
2022-08-29T02:00:10.985Z,101846.22
2022-08-29T02:02:40.354Z,101852.28
2022-08-29T02:05:09.681Z,101854.06
2022-08-29T02:07:36.655Z,101859.34
2022-08-29T02:10:05.812Z,101854.94
2022-08-29T02:12:33.349Z,101845.28
2022-08-29T02:15:00.507Z,101856.59
2022-08-29T02:17:28.088Z,101855.63
2022-08-29T02:19:55.099Z,101854.72
2022-08-29T02:22:22.146Z,101833.75
2022-08-29T02:24:49.106Z,101836.31
2022-08-29T02:27:16.143Z,101846.88
2022-08-29T02:29:43.365Z,101844.09
2022-08-29T02:32:14.787Z,101844.09
2022-08-29T02:34:47.721Z,101841.38
2022-08-29T02:37:16.827Z,101848.63
2022-08-29T02:39:43.931Z,101834.47
2022-08-29T02:42:11.018Z,101836.25
2022-08-29T02:44:38.254Z,101843.16
2022-08-29T02:47:05.611Z,101843.13
2022-08-29T02:49:32.691Z,101833.44
2022-08-29T02:52:02.435Z,101836.81
2022-08-29T02:54:29.790Z,101841.22
2022-08-29T02:56:56.754Z,101841.16
2022-08-29T02:59:23.773Z,101842.09
2022-08-29T03:01:50.918Z,101841.16
2022-08-29T03:04:18.006Z,101840.41
2022-08-29T03:06:47.161Z,101837.81
2022-08-29T03:09:14.186Z,101848.19
2022-08-29T03:11:41.205Z,101841.28
2022-08-29T03:14:08.857Z,101840.34
2022-08-29T03:16:36.631Z,101833.44
2022-08-29T03:19:03.730Z,101841.22
2022-08-29T03:21:33.360Z,101854.50
2022-08-29T03:24:00.414Z,101853.66
2022-08-29T03:26:27.407Z,101846.59
2022-08-29T03:28:54.374Z,101852.88
2022-08-29T03:31:22.230Z,101863.69
2022-08-29T03:33:49.474Z,101846.25
2022-08-29T03:36:16.545Z,101834.03
2022-08-29T03:38:46.346Z,101856.06
2022-08-29T03:41:22.857Z,101857.88
2022-08-29T03:43:50.488Z,101862.34
2022-08-29T03:46:17.820Z,101860.69
2022-08-29T03:48:44.977Z,101862.47
2022-08-29T03:51:12.049Z,101856.31
2022-08-29T03:53:40.732Z,101865.91
2022-08-29T03:56:09.351Z,101854.50
2022-08-29T03:58:39.055Z,101863.41
2022-08-29T04:01:06.566Z,101859.97
2022-08-29T04:03:33.590Z,101854.84
2022-08-29T04:06:00.787Z,101860.88
2022-08-29T04:08:27.812Z,101869.72
2022-08-29T04:10:54.807Z,101854.78
2022-08-29T04:13:21.943Z,101866.97
2022-08-29T04:15:48.942Z,101851.31
2022-08-29T04:18:21.481Z,101866.25
2022-08-29T04:20:49.447Z,101865.38
2022-08-29T04:23:16.604Z,101862.72
2022-08-29T04:25:44.649Z,101854.66
2022-08-29T04:28:14.796Z,101865.19
2022-08-29T04:30:51.832Z,101861.56
2022-08-29T04:33:24.288Z,101846.88
2022-08-29T04:35:52.721Z,101863.78
2022-08-29T04:38:20.016Z,101870.91
2022-08-29T04:40:47.420Z,101857.81
2022-08-29T04:43:14.878Z,101872.69
2022-08-29T04:45:42.099Z,101872.00
2022-08-29T04:48:10.798Z,101872.59
2022-08-29T04:50:38.973Z,101882.50
2022-08-29T04:53:05.936Z,101876.31
2022-08-29T04:55:33.104Z,101880.72
2022-08-29T04:58:00.444Z,101876.25
2022-08-29T05:00:30.189Z,101881.66
2022-08-29T05:02:58.199Z,101878.06
2022-08-29T05:05:25.593Z,101890.28
2022-08-29T05:07:53.777Z,101888.53
2022-08-29T05:10:22.485Z,101898.19
2022-08-29T05:12:49.923Z,101881.78
2022-08-29T05:15:18.618Z,101897.56
2022-08-29T05:17:45.859Z,101885.28
2022-08-29T05:20:13.872Z,101899.28
2022-08-29T05:22:42.326Z,101906.22
2022-08-29T05:25:17.964Z,101918.59
2022-08-29T05:27:45.991Z,101923.91
2022-08-29T05:30:13.273Z,101910.78
2022-08-29T05:32:40.310Z,101919.81
2022-08-29T05:35:07.774Z,101929.53
2022-08-29T05:37:34.859Z,101931.25
2022-08-29T05:40:03.295Z,101937.50
2022-08-29T05:42:30.427Z,101931.53
2022-08-29T05:44:58.629Z,101934.19
2022-08-29T05:47:25.601Z,101929.63
2022-08-29T05:49:52.619Z,101924.22
2022-08-29T05:52:21.502Z,101928.38
2022-08-29T05:54:49.261Z,101936.91
2022-08-29T05:57:23.299Z,101934.97
2022-08-29T05:59:53.612Z,101927.94
2022-08-29T06:02:22.944Z,101943.53
2022-08-29T06:04:50.677Z,101951.38
2022-08-29T06:07:18.849Z,101947.66
2022-08-29T06:09:46.378Z,101944.28
2022-08-29T06:12:15.607Z,101946.69
2022-08-29T06:14:50.187Z,101949.19
2022-08-29T06:17:17.797Z,101939.59
2022-08-29T06:19:45.082Z,101928.19
2022-08-29T06:22:13.174Z,101951.84
2022-08-29T06:24:40.661Z,101939.50
2022-08-29T06:27:12.681Z,101950.81
2022-08-29T06:29:43.258Z,101956.13
2022-08-29T06:32:12.843Z,101964.88
2022-08-29T06:34:40.260Z,101965.78
2022-08-29T06:37:07.317Z,101962.38
2022-08-29T06:39:34.502Z,101964.28
2022-08-29T06:42:01.622Z,101962.75
2022-08-29T06:44:31.055Z,101970.66
2022-08-29T06:46:59.291Z,101975.75
2022-08-29T06:49:27.705Z,101981.91
2022-08-29T06:51:58.049Z,101974.25
2022-08-29T06:54:28.703Z,101983.84
2022-08-29T06:56:57.769Z,101967.16
2022-08-29T06:59:25.225Z,101978.38
2022-08-29T07:01:52.813Z,101984.56
2022-08-29T07:04:20.976Z,101989.13
2022-08-29T07:06:49.386Z,101991.84
2022-08-29T07:09:17.571Z,101986.63
2022-08-29T07:11:44.953Z,101987.47
2022-08-29T07:14:14.250Z,102003.91
2022-08-29T07:16:43.206Z,101996.94
2022-08-29T07:19:11.683Z,101993.44
2022-08-29T07:21:39.793Z,102009.09
2022-08-29T07:24:09.138Z,102012.72
2022-08-29T07:26:42.756Z,102011.94
2022-08-29T07:29:18.385Z,102011.25
2022-08-29T07:31:47.560Z,102011.34
2022-08-29T07:34:15.653Z,101999.94
2022-08-29T07:36:43.302Z,101996.06
2022-08-29T07:39:16.489Z,101992.47
2022-08-29T07:41:44.808Z,102011.47
2022-08-29T07:44:13.695Z,102012.81
2022-08-29T07:46:42.232Z,102007.28
2022-08-29T07:49:09.747Z,101977.00
2022-08-29T07:51:36.765Z,102029.19
2022-08-29T07:54:06.613Z,102039.03
2022-08-29T07:56:41.072Z,102032.09
2022-08-29T07:59:08.642Z,102032.16
2022-08-29T08:01:37.034Z,102031.28
2022-08-29T08:04:05.589Z,102036.53
2022-08-29T08:06:36.915Z,102033.75
2022-08-29T08:09:06.353Z,102044.38
2022-08-29T08:11:35.077Z,102013.03
2022-08-29T08:14:03.389Z,102036.34
2022-08-29T08:16:32.809Z,102041.28
2022-08-29T08:19:00.563Z,102043.81
2022-08-29T08:21:28.114Z,102040.00
2022-08-29T08:23:55.695Z,102054.94
2022-08-29T08:26:23.659Z,102054.06
2022-08-29T08:28:52.201Z,102061.97
2022-08-29T08:31:23.576Z,102066.25
2022-08-29T08:33:52.170Z,102065.34
2022-08-29T08:36:29.405Z,102066.53
2022-08-29T08:39:00.031Z,102077.19
2022-08-29T08:41:27.557Z,102075.69
2022-08-29T08:44:07.135Z,102064.50
2022-08-29T08:46:44.246Z,101994.28
2022-08-29T08:49:40.487Z,102059.38
2022-08-29T08:52:16.603Z,102079.41
2022-08-29T08:54:58.146Z,102078.59
2022-08-29T08:57:46.425Z,102081.56
2022-08-29T09:00:14.026Z,102077.91
2022-08-29T09:03:05.116Z,102075.88
2022-08-29T09:06:04.015Z,102087.00
2022-08-29T09:09:03.737Z,102078.47
2022-08-29T09:12:06.805Z,102085.00
2022-08-29T09:14:56.751Z,102071.34
2022-08-29T09:17:42.161Z,102058.03
2022-08-29T09:20:22.323Z,102086.09
2022-08-29T09:23:18.494Z,102079.16
2022-08-29T09:25:46.840Z,102069.38
2022-08-29T09:28:14.685Z,102077.88
2022-08-29T09:31:05.568Z,102068.84
2022-08-29T09:33:45.635Z,102082.72
2022-08-29T09:36:41.958Z,102083.97
2022-08-29T09:39:24.209Z,102088.38
2022-08-29T09:41:58.979Z,102082.22
2022-08-29T09:44:35.822Z,102081.88
2022-08-29T09:47:13.083Z,102095.94
2022-08-29T09:50:01.879Z,102096.50
2022-08-29T09:52:29.275Z,102092.00
2022-08-29T09:54:56.782Z,102095.22
2022-08-29T09:57:28.652Z,102100.69
2022-08-29T10:00:23.821Z,102093.84
2022-08-29T10:02:56.985Z,102103.22
2022-08-29T10:05:46.235Z,102106.53
2022-08-29T10:08:38.633Z,102106.41
2022-08-29T10:11:56.640Z,102112.75
2022-08-29T10:14:53.357Z,102116.50
2022-08-29T10:17:57.024Z,102119.25
2022-08-29T10:20:43.911Z,102110.59
2022-08-29T10:23:47.461Z,102122.22
2022-08-29T10:26:48.332Z,102132.34
2022-08-29T10:29:39.715Z,102128.22
2022-08-29T10:32:27.630Z,102134.38
2022-08-29T10:35:28.235Z,102129.97
2022-08-29T10:38:41.061Z,102134.38
2022-08-29T10:41:47.116Z,102142.47
2022-08-29T10:45:00.023Z,102149.03
2022-08-29T10:48:11.600Z,102155.81
2022-08-29T10:51:03.077Z,102158.78
2022-08-29T10:53:46.791Z,102154.16
2022-08-29T10:56:40.611Z,102158.38
2022-08-29T10:59:42.211Z,102155.38
2022-08-29T11:02:36.298Z,102157.91
2022-08-29T11:05:14.034Z,102139.56
2022-08-29T11:07:56.319Z,102165.13
2022-08-29T11:10:31.975Z,102163.38
2022-08-29T11:13:26.760Z,102153.09
2022-08-29T11:16:02.248Z,102165.53
2022-08-29T11:18:47.276Z,102169.06
2022-08-29T11:21:46.853Z,102161.78
2022-08-29T11:24:18.568Z,102163.47
2022-08-29T11:27:02.102Z,102168.56
2022-08-29T11:30:08.211Z,102171.94
2022-08-29T11:33:04.435Z,102179.09
2022-08-29T11:35:44.384Z,102182.09
2022-08-29T11:38:45.641Z,102189.69
2022-08-29T11:41:41.962Z,102190.22
2022-08-29T11:44:29.511Z,102186.34
2022-08-29T11:46:58.959Z,102192.66
2022-08-29T11:49:30.524Z,102195.28
2022-08-29T11:52:20.287Z,102194.31
2022-08-29T11:55:22.855Z,102189.09
2022-08-29T11:58:03.815Z,102197.16
2022-08-29T12:00:40.983Z,102196.34
2022-08-29T12:03:33.155Z,102203.31
2022-08-29T12:06:26.583Z,102204.31
2022-08-29T12:09:13.291Z,102206.13
2022-08-29T12:11:59.314Z,102203.47
2022-08-29T12:14:44.250Z,102209.59
2022-08-29T12:17:51.420Z,102198.03
2022-08-29T12:20:40.723Z,102152.84
2022-08-29T12:23:18.810Z,102202.34
2022-08-29T12:26:21.524Z,102206.56
2022-08-29T12:28:59.328Z,102209.06
2022-08-29T12:32:18.869Z,102216.03
2022-08-29T12:35:24.150Z,102217.91
2022-08-29T12:38:08.476Z,102219.56
2022-08-29T12:41:18.518Z,102223.00
2022-08-29T12:43:47.480Z,102219.44
2022-08-29T12:46:31.575Z,102226.53
2022-08-29T12:49:27.037Z,102217.72
2022-08-29T12:52:04.613Z,102216.91
2022-08-29T12:54:45.969Z,102223.22
2022-08-29T12:57:35.097Z,102217.34
2022-08-29T13:00:15.918Z,102218.09
2022-08-29T13:03:20.399Z,102217.13
2022-08-29T13:05:51.281Z,102224.19
2022-08-29T13:08:33.754Z,102215.38
2022-08-29T13:11:10.125Z,102206.69
2022-08-29T13:13:38.846Z,102211.81
2022-08-29T13:16:23.337Z,102210.88
2022-08-29T13:19:09.657Z,102213.59
2022-08-29T13:21:41.642Z,102224.28
2022-08-29T13:24:19.776Z,102217.34
2022-08-29T13:27:04.560Z,102221.09
2022-08-29T13:29:42.566Z,102228.16
2022-08-29T13:32:26.861Z,102229.19
2022-08-29T13:35:17.959Z,102234.63
2022-08-29T13:38:20.362Z,102227.09
2022-08-29T13:40:59.042Z,102234.31
2022-08-29T13:43:45.818Z,102237.88
2022-08-29T13:46:15.013Z,102236.16
2022-08-29T13:48:44.341Z,102231.00
2022-08-29T13:51:14.539Z,102231.97
2022-08-29T13:53:50.863Z,102230.19
2022-08-29T13:56:33.551Z,102225.88
2022-08-29T13:59:05.125Z,102225.00
2022-08-29T14:04:37.405Z,102227.47
2022-08-29T14:07:08.748Z,102221.31
2022-08-29T14:09:41.895Z,102223.78
2022-08-29T14:12:14.016Z,102231.03
2022-08-29T14:14:45.702Z,102237.31
2022-08-29T14:17:18.921Z,102230.47
2022-08-29T14:19:47.397Z,102237.38
2022-08-29T14:22:15.254Z,102235.75
2022-08-29T14:24:51.319Z,102239.13
2022-08-29T14:27:21.077Z,102236.50
2022-08-29T14:29:49.464Z,102237.47
2022-08-29T14:32:17.295Z,102234.91
2022-08-29T14:34:45.474Z,102226.00
2022-08-29T14:37:18.760Z,102242.63
2022-08-29T14:39:49.713Z,102240.81
2022-08-29T14:42:18.833Z,102240.78
2022-08-29T14:44:46.272Z,102250.53
2022-08-29T14:47:13.684Z,102235.59
2022-08-29T14:49:41.212Z,102240.88
2022-08-29T14:52:09.096Z,102254.13
2022-08-29T14:54:36.088Z,102245.47
2022-08-29T14:57:03.746Z,102250.75
2022-08-29T14:59:34.073Z,102236.00
2022-08-29T15:02:05.583Z,102244.75
2022-08-29T15:04:37.780Z,102252.66
2022-08-29T15:07:11.968Z,102243.84
2022-08-29T15:09:41.962Z,102257.88
2022-08-29T15:12:10.817Z,102250.06
2022-08-29T15:14:38.113Z,102236.78
2022-08-29T15:17:06.244Z,102239.47
2022-08-29T15:22:22.344Z,102231.75
2022-08-29T15:24:51.316Z,102225.72
2022-08-29T15:27:26.814Z,102237.00
2022-08-29T15:29:55.346Z,102237.19
2022-08-29T15:32:22.623Z,102234.56
2022-08-29T15:34:50.276Z,102242.38
2022-08-29T15:37:17.997Z,102219.81
2022-08-29T15:39:45.141Z,102244.28
2022-08-29T15:42:13.654Z,102249.50
2022-08-29T15:44:44.750Z,102241.03
2022-08-29T15:47:11.973Z,102254.81
2022-08-29T15:49:39.617Z,102238.25
2022-08-29T15:52:07.043Z,102242.66
2022-08-29T15:54:35.478Z,102257.47
2022-08-29T15:57:02.697Z,102240.91
2022-08-29T15:59:56.155Z,102242.56
2022-08-29T16:02:17.879Z,102247.97
2022-08-29T16:04:47.646Z,102243.59
2022-08-29T16:07:17.075Z,102249.72
2022-08-29T16:09:45.305Z,102260.25
2022-08-29T16:12:12.618Z,102259.34
2022-08-29T16:14:59.135Z,102261.13
2022-08-29T16:17:31.036Z,102257.75
2022-08-29T16:20:02.300Z,102261.34
2022-08-29T16:22:30.495Z,102263.25
2022-08-29T16:24:58.439Z,102252.66
2022-08-29T16:27:25.920Z,102248.47
2022-08-29T16:29:54.105Z,102250.06
2022-08-29T16:32:21.676Z,102237.00
2022-08-29T16:34:49.300Z,102258.22
2022-08-29T16:37:16.344Z,102252.97
2022-08-29T16:39:43.572Z,102238.13
2022-08-29T16:42:14.282Z,102236.31
2022-08-29T16:44:50.577Z,102252.91
2022-08-29T16:47:20.866Z,102243.16
2022-08-29T16:49:48.607Z,102241.41
2022-08-29T16:52:18.905Z,102240.72
2022-08-29T16:54:46.391Z,102241.44
2022-08-29T16:57:13.565Z,102238.13
2022-08-29T16:59:41.237Z,102245.13
2022-08-29T17:02:08.738Z,102201.72
2022-08-29T17:04:36.810Z,102241.69
2022-08-29T17:07:04.203Z,102257.44
2022-08-29T17:09:31.395Z,102265.47
2022-08-29T17:11:59.960Z,102263.84
2022-08-29T17:14:29.443Z,102253.28
2022-08-29T17:16:56.879Z,102269.13
2022-08-29T17:19:24.566Z,102262.97
2022-08-29T17:21:51.985Z,102255.19
2022-08-29T17:24:20.267Z,102277.13
2022-08-29T17:26:48.574Z,102259.63
2022-08-29T17:29:17.086Z,102256.84
2022-08-29T17:31:44.881Z,102262.03
2022-08-29T17:34:12.804Z,102266.25
2022-08-29T17:36:43.537Z,102261.09
2022-08-29T17:39:12.166Z,102263.69
2022-08-29T17:41:40.416Z,102259.06
2022-08-29T17:44:09.977Z,102261.81
2022-08-29T17:46:37.272Z,102263.56
2022-08-29T17:49:08.098Z,102239.03
2022-08-29T17:51:37.198Z,102259.19
2022-08-29T17:54:12.405Z,102257.44
2022-08-29T17:56:49.523Z,102258.44
2022-08-29T17:59:19.242Z,102256.59
2022-08-29T18:01:50.466Z,102268.06
2022-08-29T18:04:17.541Z,102251.47
2022-08-29T18:06:45.233Z,102255.88
2022-08-29T18:09:13.303Z,102233.16
2022-08-29T18:11:46.571Z,102250.63
2022-08-29T18:14:13.662Z,102259.44
2022-08-29T18:16:40.747Z,102272.72
2022-08-29T18:19:08.396Z,102270.94
2022-08-29T18:21:36.043Z,102278.00
2022-08-29T18:24:03.790Z,102278.88
2022-08-29T18:26:34.031Z,102287.69
2022-08-29T18:29:01.240Z,102293.84
2022-08-29T18:31:28.793Z,102289.47
2022-08-29T18:34:00.717Z,102297.09
2022-08-29T18:36:35.478Z,102300.56
2022-08-29T18:39:05.292Z,102302.41
2022-08-29T18:41:32.674Z,102298.84
2022-08-29T18:43:59.802Z,102304.16
2022-08-29T18:46:28.537Z,102298.06
2022-08-29T18:48:56.134Z,102305.19
2022-08-29T18:51:23.181Z,102319.22
2022-08-29T18:53:50.183Z,102258.09
2022-08-29T18:56:17.317Z,102313.91
2022-08-29T18:58:44.689Z,102317.38
2022-08-29T19:01:19.312Z,102305.03
2022-08-29T19:04:00.174Z,102310.34
2022-08-29T19:06:28.220Z,102304.22
2022-08-29T19:08:57.056Z,102312.88
2022-08-29T19:11:26.953Z,102317.28
2022-08-29T19:13:54.447Z,102317.25
2022-08-29T19:16:23.831Z,102301.44
2022-08-29T19:18:52.272Z,102320.78
2022-08-29T19:21:19.937Z,102324.28
2022-08-29T19:23:52.425Z,102315.47
2022-08-29T19:26:35.595Z,102318.09
2022-08-29T19:29:12.443Z,102329.59
2022-08-29T19:31:42.485Z,102325.16
2022-08-29T19:34:09.579Z,102330.53
2022-08-29T19:36:36.867Z,102317.38
2022-08-29T19:39:04.029Z,102320.84
2022-08-29T19:41:34.764Z,102327.84
2022-08-29T19:44:02.372Z,102332.25
2022-08-29T19:46:29.610Z,102313.78
2022-08-29T19:48:56.698Z,102333.16
2022-08-29T19:51:25.490Z,102340.09
2022-08-29T19:53:57.458Z,102314.66
2022-08-29T19:56:29.241Z,102329.59
2022-08-29T19:58:56.819Z,102338.38
2022-08-29T20:01:24.140Z,102332.25
2022-08-29T20:03:52.270Z,102330.34
2022-08-29T20:06:20.548Z,102337.41
2022-08-29T20:08:47.604Z,102335.66
2022-08-29T20:11:21.287Z,102333.06
2022-08-29T20:13:51.883Z,102340.09
2022-08-29T20:16:23.027Z,102337.44
2022-08-29T20:18:52.154Z,102334.78
2022-08-29T20:21:21.337Z,102332.97
2022-08-29T20:23:57.088Z,102335.63
2022-08-29T20:26:32.968Z,102329.47
2022-08-29T20:29:02.246Z,102335.59
2022-08-29T20:31:29.540Z,102327.75
2022-08-29T20:33:56.832Z,102325.22
2022-08-29T20:36:44.495Z,102338.28
2022-08-29T20:39:16.440Z,102322.59
2022-08-29T20:41:50.513Z,102338.47
2022-08-29T20:44:20.331Z,102341.13
2022-08-29T20:46:49.359Z,102341.13
2022-08-29T20:49:23.554Z,102338.53
2022-08-29T20:51:52.322Z,102328.94
2022-08-29T20:54:24.311Z,102344.72
2022-08-29T20:56:52.281Z,102346.44
2022-08-29T20:59:21.633Z,102340.22
2022-08-29T21:01:50.261Z,102349.03
2022-08-29T21:04:36.386Z,102344.53
2022-08-29T21:07:08.789Z,102349.06
2022-08-29T21:09:36.949Z,102350.81
2022-08-29T21:12:04.215Z,102351.78
2022-08-29T21:14:31.187Z,102353.47
2022-08-29T21:16:58.604Z,102357.91
2022-08-29T21:19:31.825Z,102359.63
2022-08-29T21:22:01.806Z,102355.25
2022-08-29T21:24:30.411Z,102357.91
2022-08-29T21:26:58.325Z,102342.03
2022-08-29T21:29:25.389Z,102354.38
2022-08-29T21:31:54.039Z,102349.09
2022-08-29T21:34:22.486Z,102351.78
2022-08-29T21:36:49.759Z,102350.03
2022-08-29T21:39:28.025Z,102360.63
2022-08-29T21:41:57.561Z,102361.53
2022-08-29T21:44:24.543Z,102364.22
2022-08-29T21:46:52.675Z,102354.47
2022-08-29T21:49:21.781Z,102354.41
2022-08-29T21:51:49.453Z,102355.31
2022-08-29T21:54:18.097Z,102354.41
2022-08-29T21:56:46.679Z,102336.91
2022-08-29T21:59:16.387Z,102331.59
2022-08-29T22:01:45.733Z,102352.59
2022-08-29T22:04:27.756Z,102349.09
2022-08-29T22:06:56.655Z,102346.47
2022-08-29T22:09:23.691Z,102351.72
2022-08-29T22:11:51.884Z,102352.66
2022-08-29T22:14:18.994Z,102349.16
2022-08-29T22:16:46.313Z,102352.66
2022-08-29T22:19:17.398Z,102336.09
2022-08-29T22:21:54.480Z,102339.47
2022-08-29T22:24:21.609Z,102348.28
2022-08-29T22:26:48.660Z,102339.59
2022-08-29T22:29:19.959Z,102342.31
2022-08-29T22:31:47.293Z,102341.38
2022-08-29T22:34:17.628Z,102341.34
2022-08-29T22:36:45.052Z,102338.78
2022-08-29T22:39:12.218Z,102354.47
2022-08-29T22:41:41.318Z,102343.91
2022-08-29T22:47:00.419Z,102350.25
2022-08-29T22:49:33.324Z,102372.22
2022-08-29T22:52:01.426Z,102352.00
2022-08-29T22:54:37.600Z,102364.25
2022-08-29T22:57:13.680Z,102363.34
2022-08-29T22:59:43.109Z,102362.47
2022-08-29T23:02:12.443Z,102359.78
2022-08-29T23:04:40.141Z,102359.78
2022-08-29T23:07:08.904Z,102351.09
2022-08-29T23:09:42.292Z,102355.38
2022-08-29T23:12:11.701Z,102357.16
2022-08-29T23:14:43.117Z,102361.59
2022-08-29T23:17:10.156Z,102359.06
2022-08-29T23:19:40.977Z,102347.66
2022-08-29T23:22:11.319Z,102361.72
2022-08-29T23:24:53.766Z,102358.22
2022-08-29T23:27:31.944Z,102360.94
2022-08-29T23:30:00.731Z,102362.72
2022-08-29T23:32:28.947Z,102358.31
2022-08-29T23:34:56.813Z,102352.31
2022-08-29T23:37:25.376Z,102358.34
2022-08-29T23:39:52.457Z,102354.91
2022-08-29T23:42:19.616Z,102361.00
2022-08-29T23:44:48.313Z,102357.56
2022-08-29T23:47:16.136Z,102357.59
2022-08-29T23:49:43.529Z,102361.09
2022-08-29T23:52:10.897Z,102363.78
2022-08-29T23:54:38.120Z,102363.81
2022-08-29T23:57:05.314Z,102360.44
2022-08-29T23:59:54.004Z,102361.19
